Time;durP1;ratioP1;P1;durP2;ratioP2;P2;SDS_P1;SDS_P2;PMS_P1;PMS_P2;Temp;Humidity;BMP_temperature;BMP_pressure;BME280_temperature;BME280_humidity;BME280_pressure;Samples;Min_cycle;Max_cycle;Signal;HPM_P1;HPM_P2
2022/07/12 00:00:29;;;;;;;;;5.00;4.00;;;;;25.65;44.05;102028.63;2410432;28;45250;-82
2022/07/12 00:01:40;;;;;;;;;3.25;3.25;;;;;25.62;44.39;102025.19;2417358;28;45342;-82
2022/07/12 00:02:50;;;;;;;;;2.25;2.25;;;;;25.60;43.78;102027.16;2419189;28;44702;-82
2022/07/12 00:04:00;;;;;;;;;2.75;2.75;;;;;25.58;43.88;102029.09;2409833;28;45468;-82
2022/07/12 00:05:11;;;;;;;;;4.00;2.75;;;;;25.57;44.16;102038.16;2410948;28;45471;-81
2022/07/12 00:06:21;;;;;;;;;3.75;3.75;;;;;25.57;44.15;102032.78;2403682;28;46093;-81
2022/07/12 00:07:31;;;;;;;;;2.00;2.00;;;;;25.56;44.59;102039.13;2420740;28;45438;-82
2022/07/12 00:08:42;;;;;;;;;1.50;1.50;;;;;25.56;44.05;102036.44;2422593;28;46275;-81
2022/07/12 00:09:52;;;;;;;;;2.50;2.50;;;;;25.55;44.59;102037.44;2416868;28;45316;-81
2022/07/12 00:11:03;;;;;;;;;3.00;3.00;;;;;25.55;44.42;102031.19;2413117;28;45353;-81
2022/07/12 00:12:14;;;;;;;;;2.75;2.75;;;;;25.53;44.14;102030.44;2422088;28;45301;-81
2022/07/12 00:13:24;;;;;;;;;2.25;2.25;;;;;25.51;44.26;102025.16;2414607;28;46111;-81
2022/07/12 00:14:34;;;;;;;;;3.00;3.00;;;;;25.50;44.74;102024.31;2410062;28;44675;-81
2022/07/12 00:15:45;;;;;;;;;3.00;3.00;;;;;25.49;44.78;102029.81;2413470;28;46527;-81
2022/07/12 00:16:55;;;;;;;;;2.25;2.00;;;;;25.47;44.67;102027.25;2421742;28;44753;-81
2022/07/12 00:18:05;;;;;;;;;2.00;2.00;;;;;25.47;44.15;102024.56;2422909;28;45400;-81
2022/07/12 00:19:16;;;;;;;;;3.25;3.00;;;;;25.48;44.98;102028.09;2419234;28;45227;-81
2022/07/12 00:20:26;;;;;;;;;5.00;5.00;;;;;25.47;44.83;102029.06;2422714;28;46270;-79
2022/07/12 00:21:37;;;;;;;;;3.25;1.75;;;;;25.45;44.97;102021.13;2422896;28;45154;-80
2022/07/12 00:22:47;;;;;;;;;3.00;3.00;;;;;25.45;44.86;102022.97;2422441;28;45538;-80
2022/07/12 00:23:58;;;;;;;;;3.00;3.00;;;;;25.43;45.10;102019.53;2412569;28;45245;-80
2022/07/12 00:25:08;;;;;;;;;3.00;3.00;;;;;25.40;45.25;102021.47;2407538;28;46418;-80
2022/07/12 00:26:19;;;;;;;;;3.00;2.50;;;;;25.38;44.55;102026.13;2412812;28;45403;-80
2022/07/12 00:27:29;;;;;;;;;2.50;2.50;;;;;25.37;45.05;102018.16;2402076;28;46380;-79
2022/07/12 00:28:40;;;;;;;;;5.00;3.50;;;;;25.35;45.29;102020.97;2410711;28;44847;-80
2022/07/12 00:29:50;;;;;;;;;5.25;4.00;;;;;25.36;44.91;102024.53;2412304;28;45277;-79
2022/07/12 00:31:00;;;;;;;;;2.00;2.00;;;;;25.34;45.01;102013.88;2413537;28;45201;-80
2022/07/12 00:32:11;;;;;;;;;3.25;2.50;;;;;25.32;45.03;102025.72;2413407;28;46295;-81
2022/07/12 00:33:21;;;;;;;;;2.50;2.50;;;;;25.31;45.73;102026.72;2413404;28;45438;-82
2022/07/12 00:34:31;;;;;;;;;2.25;2.00;;;;;25.28;45.76;102025.13;2403638;28;45461;-82
2022/07/12 00:35:42;;;;;;;;;4.25;3.00;;;;;25.27;45.75;102028.75;2403812;28;44770;-82
2022/07/12 00:36:52;;;;;;;;;2.00;2.00;;;;;25.23;45.76;102024.59;2418538;28;45435;-82
2022/07/12 00:38:02;;;;;;;;;3.25;2.00;;;;;25.21;45.52;102032.78;2415760;28;45245;-80
2022/07/12 00:39:13;;;;;;;;;4.00;4.00;;;;;25.19;45.49;102028.50;2392787;28;47526;-81
2022/07/12 00:40:23;;;;;;;;;4.75;4.00;;;;;25.15;45.66;102026.03;2402015;28;44734;-81
2022/07/12 00:41:33;;;;;;;;;3.75;3.75;;;;;25.14;45.95;102028.81;2422773;28;45425;-82
2022/07/12 00:42:44;;;;;;;;;3.00;2.00;;;;;25.13;45.82;102024.44;2422798;28;45308;-82
2022/07/12 00:43:54;;;;;;;;;3.00;3.00;;;;;25.11;46.05;102024.56;2417994;28;46418;-82
2022/07/12 00:45:06;;;;;;;;;3.25;3.00;;;;;25.10;45.62;102027.34;2411614;28;45278;-82
2022/07/12 00:46:21;;;;;;;;;4.50;3.50;;;;;25.06;46.50;102024.88;2407719;28;46356;-82
2022/07/12 00:47:37;;;;;;;;;2.75;2.75;;;;;25.03;46.05;102022.44;2422934;28;45334;-82
2022/07/12 00:48:47;;;;;;;;;3.25;3.25;;;;;25.00;46.57;102021.81;2420989;28;45420;-82
2022/07/12 00:49:58;;;;;;;;;3.25;3.25;;;;;24.97;46.46;102020.19;2410948;28;45360;-82
2022/07/12 00:51:10;;;;;;;;;2.50;2.50;;;;;24.94;46.70;102026.63;2419590;28;46409;-82
2022/07/12 00:52:20;;;;;;;;;4.25;3.75;;;;;24.93;46.66;102022.25;2422904;28;45229;-82
2022/07/12 00:53:30;;;;;;;;;4.25;3.00;;;;;24.89;46.99;102019.91;2408785;28;46264;-82
2022/07/12 00:54:41;;;;;;;;;2.50;2.50;;;;;24.87;46.88;102020.00;2418849;28;45233;-83
2022/07/12 00:55:56;;;;;;;;;3.75;3.00;;;;;24.83;47.03;102008.63;2413094;28;46100;-81
2022/07/12 00:57:06;;;;;;;;;3.50;3.50;;;;;24.80;47.28;102013.38;2421960;28;45375;-80
2022/07/12 00:58:16;;;;;;;;;2.25;2.25;;;;;24.77;47.21;102008.25;2422534;28;46296;-80
2022/07/12 00:59:27;;;;;;;;;3.25;3.00;;;;;24.73;47.09;102012.97;2420259;28;45225;-80
2022/07/12 01:00:37;;;;;;;;;4.00;3.00;;;;;24.69;47.61;102006.94;2413073;28;45667;-80
2022/07/12 01:01:47;;;;;;;;;3.25;3.25;;;;;24.68;47.20;102020.50;2420819;28;45264;-81
2022/07/12 01:03:01;;;;;;;;;3.00;3.00;;;;;24.63;47.31;102014.63;2422139;28;45644;-80
2022/07/12 01:04:12;;;;;;;;;4.00;4.00;;;;;24.61;47.47;102020.13;2406749;28;44794;-81
2022/07/12 01:05:23;;;;;;;;;5.75;3.25;;;;;24.58;47.49;102012.28;2409408;28;45406;-81
2022/07/12 01:06:35;;;;;;;;;2.50;2.50;;;;;24.55;47.67;102009.78;2410915;28;45171;-80
2022/07/12 01:07:45;;;;;;;;;3.75;3.75;;;;;24.54;47.62;102013.47;2412763;28;46322;-81
2022/07/12 01:08:58;;;;;;;;;3.75;3.00;;;;;24.52;47.73;102015.41;2419219;28;44787;-81
2022/07/12 01:10:09;;;;;;;;;3.00;3.00;;;;;24.50;47.78;102013.69;2412431;28;45284;-81
2022/07/12 01:11:20;;;;;;;;;3.50;3.50;;;;;24.47;47.39;102013.06;2418165;28;45435;-80
2022/07/12 01:12:31;;;;;;;;;6.00;4.00;;;;;24.46;47.73;102011.34;2412151;28;46373;-80
2022/07/12 01:13:43;;;;;;;;;5.25;4.00;;;;;24.44;47.92;102011.47;2404669;28;45242;-80
2022/07/12 01:14:54;;;;;;;;;4.00;3.75;;;;;24.42;47.85;102005.31;2408883;28;45345;-80
2022/07/12 01:16:07;;;;;;;;;2.75;2.00;;;;;24.41;48.09;102014.38;2413194;28;45336;-80
2022/07/12 01:17:23;;;;;;;;;4.25;3.00;;;;;24.36;48.09;102014.69;2412840;28;45451;-80
2022/07/12 01:18:35;;;;;;;;;3.50;2.75;;;;;24.36;48.15;102016.53;2415901;28;45257;-79
2022/07/12 01:19:46;;;;;;;;;3.50;3.50;;;;;24.36;48.25;102017.38;2403225;28;46650;-79
2022/07/12 01:20:56;;;;;;;;;6.00;4.00;;;;;24.34;48.09;102015.78;2417145;28;44552;-80
2022/07/12 01:22:09;;;;;;;;;5.00;4.00;;;;;24.34;48.21;102023.84;2417333;28;46472;-80
2022/07/12 01:23:21;;;;;;;;;3.00;3.00;;;;;24.30;48.10;102028.56;2412817;28;45139;-80
2022/07/12 01:24:32;;;;;;;;;2.75;2.75;;;;;24.28;48.41;102023.31;2404152;28;45538;-79
2022/07/12 01:25:42;;;;;;;;;2.25;2.25;;;;;24.27;48.19;102024.25;2403278;28;45434;-80
2022/07/12 01:26:53;;;;;;;;;3.75;3.75;;;;;24.26;48.72;102025.25;2415212;28;46329;-80
2022/07/12 01:28:04;;;;;;;;;5.50;3.00;;;;;24.22;48.69;102023.72;2422503;28;45268;-79
2022/07/12 01:29:14;;;;;;;;;4.50;4.50;;;;;24.20;48.50;102024.81;2422520;28;46129;-80
2022/07/12 01:30:25;;;;;;;;;3.00;3.00;;;;;24.18;48.72;102024.91;2405462;28;45501;-80
2022/07/12 01:31:35;;;;;;;;;4.50;4.00;;;;;24.15;48.90;102022.44;2415236;28;45408;-80
2022/07/12 01:32:46;;;;;;;;;4.00;4.00;;;;;24.13;48.88;102019.00;2403403;28;45459;-79
2022/07/12 01:33:57;;;;;;;;;6.00;4.25;;;;;24.10;49.25;102019.22;2410724;28;45268;-79
2022/07/12 01:35:08;;;;;;;;;3.75;3.75;;;;;24.09;49.12;102017.50;2411624;28;45309;-79
2022/07/12 01:36:19;;;;;;;;;3.50;3.50;;;;;24.04;49.01;102010.63;2413718;28;45268;-79
2022/07/12 01:37:42;;;;;;;;;4.00;3.75;;;;;24.02;49.42;102014.41;2422563;28;45206;-79
2022/07/12 01:38:52;;;;;;;;;2.50;2.50;;;;;24.00;49.55;102013.66;2410975;28;45451;-79
2022/07/12 01:40:05;;;;;;;;;4.25;4.00;;;;;23.98;49.39;102012.91;2410150;28;46354;-80
2022/07/12 01:41:16;;;;;;;;;3.00;3.00;;;;;23.96;49.20;102009.44;2413901;28;46450;-79
2022/07/12 01:42:28;;;;;;;;;3.00;3.00;;;;;23.92;49.25;102007.00;2422592;28;45248;-80
2022/07/12 01:43:39;;;;;;;;;3.00;3.00;;;;;23.90;49.44;102006.22;2406502;28;45427;-80
2022/07/12 01:44:50;;;;;;;;;6.00;4.50;;;;;23.90;49.78;102011.59;2403077;28;45172;-80
2022/07/12 01:46:01;;;;;;;;;4.00;4.00;;;;;23.86;49.66;102009.22;2407612;28;46579;-80
2022/07/12 01:47:11;;;;;;;;;4.50;4.00;;;;;23.86;50.08;101999.38;2414405;28;45442;-80
2022/07/12 01:48:22;;;;;;;;;4.00;4.00;;;;;23.83;49.85;102013.00;2422376;28;45444;-80
2022/07/12 01:49:32;;;;;;;;;6.75;3.75;;;;;23.83;50.35;102004.94;2422103;28;45337;-78
2022/07/12 01:50:42;;;;;;;;;4.00;4.00;;;;;23.79;49.52;102007.00;2404469;28;46537;-89
2022/07/12 01:51:55;;;;;;;;;4.25;4.25;;;;;23.78;49.88;102005.25;2403444;28;45301;-89
2022/07/12 01:53:07;;;;;;;;;3.75;3.75;;;;;23.77;50.37;102000.88;2407711;28;47377;-89
2022/07/12 01:54:17;;;;;;;;;3.00;3.00;;;;;23.75;50.26;102012.69;2405396;28;45202;-89
2022/07/12 01:55:28;;;;;;;;;3.75;3.75;;;;;23.74;50.36;102010.94;2401081;28;46325;-89
2022/07/12 01:56:39;;;;;;;;;2.75;2.75;;;;;23.71;50.49;102012.03;2409478;28;45219;-89
2022/07/12 01:57:49;;;;;;;;;4.00;4.00;;;;;23.69;50.34;102005.91;2422278;28;45373;-89
2022/07/12 01:59:00;;;;;;;;;4.25;4.25;;;;;23.68;50.19;102009.56;2411897;28;45298;-88
2022/07/12 02:00:11;;;;;;;;;3.75;3.75;;;;;23.66;50.11;102014.16;2404931;28;48025;-88
2022/07/12 02:01:22;;;;;;;;;3.00;3.00;;;;;23.64;50.58;102014.28;2394760;28;45177;-88
2022/07/12 02:02:33;;;;;;;;;3.25;3.25;;;;;23.63;50.43;102007.19;2411175;28;45641;-88
2022/07/12 02:03:43;;;;;;;;;4.25;3.75;;;;;23.62;50.49;102008.16;2411618;28;45341;-88
2022/07/12 02:04:54;;;;;;;;;4.00;4.00;;;;;23.63;50.75;102009.03;2404676;28;45526;-88
2022/07/12 02:06:05;;;;;;;;;4.00;4.00;;;;;23.60;50.60;102010.09;2395802;28;45191;-88
2022/07/12 02:07:15;;;;;;;;;4.75;4.25;;;;;23.57;50.56;102005.81;2389938;28;47146;-89
2022/07/12 02:08:25;;;;;;;;;5.00;5.00;;;;;23.55;50.45;102007.75;2399904;28;45248;-89
2022/07/12 02:09:36;;;;;;;;;3.50;3.50;;;;;23.55;50.80;102006.88;2410042;28;46245;-89
2022/07/12 02:10:46;;;;;;;;;4.00;4.00;;;;;23.55;50.90;102013.09;2409930;28;45311;-87
2022/07/12 02:11:56;;;;;;;;;4.25;4.00;;;;;23.54;50.85;102008.69;2410427;28;45365;-87
2022/07/12 02:13:07;;;;;;;;;5.75;5.50;;;;;23.54;51.42;102005.13;2392992;28;45251;-87
2022/07/12 02:14:17;;;;;;;;;3.50;3.50;;;;;23.52;51.44;102007.94;2387007;28;46972;-87
2022/07/12 02:15:28;;;;;;;;;4.75;4.25;;;;;23.50;51.18;102004.50;2395508;28;45247;-87
2022/07/12 02:16:39;;;;;;;;;3.75;3.75;;;;;23.47;51.11;102002.88;2402868;28;47612;-87
2022/07/12 02:17:50;;;;;;;;;4.00;4.00;;;;;23.47;50.85;102010.91;2393540;28;44617;-86
2022/07/12 02:19:01;;;;;;;;;5.25;5.00;;;;;23.45;51.52;102002.13;2395157;28;47926;-87
2022/07/12 02:20:12;;;;;;;;;4.00;3.00;;;;;23.44;50.94;102008.44;2396955;28;45338;-87
2022/07/12 02:21:23;;;;;;;;;4.00;4.00;;;;;23.42;51.16;102012.19;2395327;28;45437;-87
2022/07/12 02:22:34;;;;;;;;;4.00;4.00;;;;;23.41;51.48;102007.78;2406921;28;45212;-86
2022/07/12 02:23:44;;;;;;;;;5.00;5.00;;;;;23.37;51.84;102005.31;2394385;28;47183;-84
2022/07/12 02:24:55;;;;;;;;;4.00;4.00;;;;;23.36;51.71;102006.25;2405355;28;45352;-83
2022/07/12 02:26:05;;;;;;;;;4.25;4.25;;;;;23.34;51.60;102002.84;2412439;28;45276;-83
2022/07/12 02:27:16;;;;;;;;;4.75;3.50;;;;;23.35;51.44;102011.75;2393371;28;45168;-83
2022/07/12 02:28:26;;;;;;;;;5.00;5.00;;;;;23.33;51.55;102003.81;2388723;28;46291;-83
2022/07/12 02:29:37;;;;;;;;;4.25;4.25;;;;;23.33;51.33;102006.50;2395187;28;45291;-83
2022/07/12 02:30:47;;;;;;;;;4.00;4.00;;;;;23.32;51.67;102012.81;2401354;28;46212;-84
2022/07/12 02:31:57;;;;;;;;;4.00;4.00;;;;;23.30;51.92;102006.69;2403252;28;44603;-85
2022/07/12 02:33:08;;;;;;;;;4.50;4.50;;;;;23.31;51.46;102011.06;2408729;28;45345;-85
2022/07/12 02:34:18;;;;;;;;;3.25;3.25;;;;;23.29;51.51;102009.47;2402231;28;45215;-84
2022/07/12 02:35:28;;;;;;;;;4.50;4.50;;;;;23.26;51.79;102008.72;2397173;28;48282;-85
2022/07/12 02:36:39;;;;;;;;;5.00;4.50;;;;;23.26;51.94;102005.19;2408100;28;45278;-84
2022/07/12 02:37:49;;;;;;;;;4.00;3.75;;;;;23.24;51.43;102005.28;2392768;28;46385;-84
2022/07/12 02:39:02;;;;;;;;;3.50;3.00;;;;;23.23;51.71;102002.72;2404352;28;45377;-85
2022/07/12 02:41:41;;;;;;;;;4.00;4.00;;;;;23.21;51.53;102010.00;2396770;28;45452;-86
2022/07/12 02:42:52;;;;;;;;;5.00;4.25;;;;;23.18;51.67;102011.06;2401962;28;48234;-85
2022/07/12 02:44:02;;;;;;;;;5.25;4.00;;;;;23.16;52.15;102008.47;2408108;28;45317;-85
2022/07/12 02:45:12;;;;;;;;;5.00;5.00;;;;;23.15;52.27;101998.72;2402083;28;47989;-84
2022/07/12 02:46:23;;;;;;;;;4.00;4.00;;;;;23.12;52.13;102009.66;2396208;28;45405;-84
2022/07/12 02:47:37;;;;;;;;;5.00;5.00;;;;;23.11;51.84;102004.41;2402269;28;46317;-84
2022/07/12 02:48:47;;;;;;;;;5.00;5.00;;;;;23.10;52.10;102010.72;2408176;28;44620;-89
2022/07/12 02:49:58;;;;;;;;;6.50;4.00;;;;;23.10;52.01;102010.72;2398223;28;46877;-84
2022/07/12 02:51:09;;;;;;;;;3.50;3.50;;;;;23.07;52.34;102003.72;2395658;28;45207;-85
2022/07/12 02:52:20;;;;;;;;;4.25;4.25;;;;;23.06;52.42;102010.06;2400312;28;47049;-86
2022/07/12 02:53:31;;;;;;;;;4.00;4.00;;;;;23.03;52.62;102012.94;2395264;28;44734;-86
2022/07/12 02:54:41;;;;;;;;;6.00;4.00;;;;;23.02;52.49;102009.41;2404178;28;45494;-85
2022/07/12 02:55:51;;;;;;;;;3.25;3.25;;;;;23.00;52.16;102014.00;2402425;28;45369;-86
2022/07/12 02:57:02;;;;;;;;;4.00;4.00;;;;;23.00;52.55;102013.16;2401703;28;45509;-86
2022/07/12 02:58:12;;;;;;;;;4.50;4.50;;;;;22.99;52.28;102016.81;2403996;28;44690;-86
2022/07/12 02:59:24;;;;;;;;;4.75;4.75;;;;;22.97;52.24;102013.34;2412343;28;46109;-86
2022/07/12 03:00:35;;;;;;;;;6.00;4.00;;;;;22.96;52.68;102017.88;2402871;28;45412;-86
2022/07/12 03:01:45;;;;;;;;;4.25;4.25;;;;;22.95;52.57;102017.94;2402911;28;46577;-86
2022/07/12 03:02:56;;;;;;;;;6.00;5.00;;;;;22.92;53.04;102019.00;2410339;28;44579;-86
2022/07/12 03:04:06;;;;;;;;;4.00;4.00;;;;;22.90;52.88;102015.56;2409510;28;46888;-86
2022/07/12 03:05:16;;;;;;;;;4.75;4.75;;;;;22.88;52.89;102026.41;2396018;28;45595;-86
2022/07/12 03:06:27;;;;;;;;;5.50;4.00;;;;;22.87;53.00;102024.66;2414225;28;46077;-86
2022/07/12 03:07:37;;;;;;;;;4.50;4.50;;;;;22.86;52.78;102028.34;2418705;28;45044;-86
2022/07/12 03:08:47;;;;;;;;;5.00;5.00;;;;;22.85;53.10;102021.25;2409857;28;48048;-85
2022/07/12 03:09:58;;;;;;;;;5.25;4.75;;;;;22.84;52.43;102027.53;2403829;28;44593;-86
2022/07/12 03:11:09;;;;;;;;;4.50;4.00;;;;;22.85;53.42;102028.41;2411458;28;47075;-87
2022/07/12 03:12:19;;;;;;;;;5.00;5.00;;;;;22.83;53.27;102025.84;2404535;28;45227;-88
2022/07/12 03:13:29;;;;;;;;;5.00;5.00;;;;;22.81;53.35;102030.44;2399010;28;47456;-83
2022/07/12 03:14:40;;;;;;;;;4.75;4.75;;;;;22.78;52.60;102030.63;2402564;28;45429;-82
2022/07/12 03:15:50;;;;;;;;;4.25;4.25;;;;;22.77;53.10;102028.91;2416353;28;48502;-83
2022/07/12 03:17:01;;;;;;;;;6.50;5.25;;;;;22.76;53.18;102028.06;2423471;28;45436;-83
2022/07/12 03:18:11;;;;;;;;;5.00;4.00;;;;;22.77;52.77;102027.09;2423271;28;46259;-82
2022/07/12 03:19:21;;;;;;;;;4.00;4.00;;;;;22.78;52.62;102030.63;2423446;28;44733;-82
2022/07/12 03:20:32;;;;;;;;;4.00;4.00;;;;;22.77;53.17;102024.41;2415946;28;45397;-82
2022/07/12 03:21:42;;;;;;;;;4.00;4.00;;;;;22.78;52.86;102025.28;2416227;28;45395;-82
2022/07/12 03:22:53;;;;;;;;;5.25;5.25;;;;;22.77;53.65;102026.22;2423384;28;45394;-82
2022/07/12 03:24:04;;;;;;;;;4.00;4.00;;;;;22.77;53.21;102032.44;2422461;28;45346;-83
2022/07/12 03:25:15;;;;;;;;;5.00;5.00;;;;;22.76;53.40;102030.75;2413499;28;45288;-86
2022/07/12 03:26:26;;;;;;;;;6.00;6.00;;;;;22.77;53.17;102031.59;2421209;28;44729;-86
2022/07/12 03:27:36;;;;;;;;;7.00;4.75;;;;;22.76;53.60;102027.22;2423212;28;45988;-87
2022/07/12 03:28:46;;;;;;;;;5.75;4.75;;;;;22.75;53.62;102030.84;2422735;28;45312;-86
2022/07/12 03:29:57;;;;;;;;;3.25;3.25;;;;;22.73;53.54;102025.59;2408894;28;48307;-87
2022/07/12 03:31:07;;;;;;;;;4.75;4.75;;;;;22.73;53.80;102027.41;2402991;28;45214;-87
2022/07/12 03:32:19;;;;;;;;;4.50;4.50;;;;;22.73;53.55;102032.75;2406336;28;45451;-87
2022/07/12 03:33:29;;;;;;;;;5.00;5.00;;;;;22.70;53.47;102029.31;2422873;28;45209;-86
2022/07/12 03:34:39;;;;;;;;;4.75;4.75;;;;;22.70;53.77;102026.63;2414294;28;47060;-86
2022/07/12 03:35:50;;;;;;;;;4.75;4.75;;;;;22.70;54.03;102029.31;2414294;28;45138;-86
2022/07/12 03:37:00;;;;;;;;;4.75;4.75;;;;;22.69;53.64;102030.25;2423163;28;45361;-86
2022/07/12 03:38:10;;;;;;;;;7.00;5.25;;;;;22.69;53.72;102029.44;2410485;28;45226;-87
2022/07/12 03:39:21;;;;;;;;;1.75;1.75;;;;;22.68;54.06;102031.22;2403986;28;45502;-86
2022/07/12 03:40:34;;;;;;;;;6.00;4.00;;;;;22.66;53.62;102032.28;2407454;28;45487;-85
2022/07/12 03:41:44;;;;;;;;;5.75;4.75;;;;;22.64;53.62;102028.84;2414941;28;45582;-86
2022/07/12 03:42:54;;;;;;;;;4.25;4.25;;;;;22.61;53.89;102035.25;2413128;28;45343;-86
2022/07/12 03:44:06;;;;;;;;;6.00;6.00;;;;;22.60;53.89;102034.38;2410364;28;46206;-86
2022/07/12 03:45:16;;;;;;;;;3.75;3.75;;;;;22.62;53.74;102033.44;2393912;28;45198;-84
2022/07/12 03:46:26;;;;;;;;;5.00;5.00;;;;;22.58;53.96;102035.44;2407382;28;45308;-83
2022/07/12 03:47:37;;;;;;;;;5.50;5.25;;;;;22.57;53.55;102031.88;2423265;28;45275;-83
2022/07/12 03:48:48;;;;;;;;;5.50;5.50;;;;;22.57;54.21;102039.09;2412891;28;47227;-84
2022/07/12 03:49:58;;;;;;;;;7.50;6.00;;;;;22.57;53.84;102047.13;2409459;28;45317;-83
2022/07/12 03:51:08;;;;;;;;;4.25;4.25;;;;;22.53;53.75;102032.19;2413125;28;45297;-84
2022/07/12 03:52:19;;;;;;;;;5.00;5.00;;;;;22.51;53.78;102037.66;2419306;28;45236;-86
2022/07/12 03:53:29;;;;;;;;;5.00;5.00;;;;;22.49;54.18;102042.25;2412610;28;45206;-87
2022/07/12 03:54:39;;;;;;;;;4.00;4.00;;;;;22.48;54.49;102041.38;2409872;28;45324;-88
2022/07/12 03:55:50;;;;;;;;;5.00;5.00;;;;;22.47;54.28;102041.50;2405487;28;45152;-81
2022/07/12 03:57:15;;;;;;;;;7.75;5.00;;;;;22.44;54.23;102045.22;2418413;28;45215;-81
2022/07/12 03:58:25;;;;;;;;;7.25;5.25;;;;;22.43;54.67;102042.63;2416055;28;45271;-81
2022/07/12 03:59:36;;;;;;;;;6.25;6.25;;;;;22.41;54.19;102040.06;2423466;28;45200;-82
2022/07/12 04:00:46;;;;;;;;;5.25;4.25;;;;;22.39;54.42;102047.34;2414301;28;46212;-82
2022/07/12 04:01:57;;;;;;;;;6.00;5.00;;;;;22.38;54.53;102048.28;2413756;28;45261;-82
2022/07/12 04:03:07;;;;;;;;;4.50;3.50;;;;;22.38;54.68;102056.31;2422573;28;45300;-82
2022/07/12 04:04:17;;;;;;;;;6.75;5.50;;;;;22.37;54.90;102049.25;2420494;28;45214;-82
2022/07/12 04:05:28;;;;;;;;;5.25;5.25;;;;;22.34;54.43;102044.94;2411320;28;45301;-82
2022/07/12 04:06:41;;;;;;;;;5.00;5.00;;;;;22.34;54.34;102046.75;2417930;28;44698;-82
2022/07/12 04:07:53;;;;;;;;;5.25;5.25;;;;;22.32;54.55;102052.19;2419305;28;45431;-82
2022/07/12 04:09:04;;;;;;;;;5.00;5.00;;;;;22.33;54.46;102053.06;2413699;28;44687;-82
2022/07/12 04:10:14;;;;;;;;;7.25;6.75;;;;;22.30;54.84;102054.09;2413907;28;46004;-81
2022/07/12 04:11:25;;;;;;;;;8.75;6.00;;;;;22.29;54.77;102052.41;2422850;28;45302;-81
2022/07/12 04:12:36;;;;;;;;;6.25;5.00;;;;;22.28;54.73;102047.13;2422863;28;46290;-81
2022/07/12 04:13:46;;;;;;;;;6.50;5.00;;;;;22.25;54.48;102057.06;2421928;28;44589;-81
2022/07/12 04:14:56;;;;;;;;;6.00;6.00;;;;;22.26;54.80;102053.44;2408095;28;45267;-81
2022/07/12 04:16:07;;;;;;;;;7.50;6.00;;;;;22.25;55.05;102051.72;2413617;28;45222;-81
2022/07/12 04:17:17;;;;;;;;;6.00;6.00;;;;;22.25;55.32;102054.41;2422945;28;45183;-81
2022/07/12 04:18:27;;;;;;;;;6.25;6.00;;;;;22.22;55.13;102051.94;2420620;28;45336;-81
2022/07/12 04:19:38;;;;;;;;;5.75;5.00;;;;;22.23;54.97;102060.81;2422689;28;45339;-81
2022/07/12 04:20:48;;;;;;;;;6.00;4.25;;;;;22.22;55.09;102068.00;2407709;28;45408;-81
2022/07/12 04:21:59;;;;;;;;;8.75;5.25;;;;;22.20;55.11;102059.19;2415118;28;46261;-81
2022/07/12 04:23:09;;;;;;;;;6.00;6.00;;;;;22.18;55.39;102061.09;2411119;28;45222;-81
2022/07/12 04:24:20;;;;;;;;;5.00;5.00;;;;;22.21;54.67;102060.03;2404791;28;45397;-81
2022/07/12 04:25:31;;;;;;;;;7.50;5.50;;;;;22.19;55.37;102065.50;2404026;28;44692;-81
2022/07/12 04:26:41;;;;;;;;;7.00;6.00;;;;;22.19;55.01;102062.81;2417565;28;45408;-81
2022/07/12 04:27:53;;;;;;;;;5.25;5.25;;;;;22.17;55.05;102062.06;2419474;28;45475;-82
2022/07/12 04:29:03;;;;;;;;;6.00;4.75;;;;;22.17;55.79;102061.19;2413356;28;46211;-82
2022/07/12 04:30:13;;;;;;;;;5.50;5.50;;;;;22.16;54.98;102071.03;2414530;28;45250;-81
2022/07/12 04:31:24;;;;;;;;;7.00;5.25;;;;;22.15;55.46;102061.28;2402456;28;46627;-84
2022/07/12 04:32:34;;;;;;;;;6.00;6.00;;;;;22.16;55.67;102063.00;2402468;28;45380;-83
2022/07/12 04:33:45;;;;;;;;;4.25;4.00;;;;;22.16;54.95;102065.69;2404484;28;45395;-83
2022/07/12 04:34:55;;;;;;;;;7.50;4.75;;;;;22.17;55.47;102067.41;2411058;28;44797;-83
2022/07/12 04:36:06;;;;;;;;;5.75;5.00;;;;;22.16;55.46;102068.38;2413175;28;45257;-83
2022/07/12 04:37:16;;;;;;;;;6.00;6.00;;;;;22.16;55.32;102063.00;2412472;28;45243;-83
2022/07/12 04:38:27;;;;;;;;;5.00;5.00;;;;;22.15;55.02;102066.63;2407316;28;45258;-84
2022/07/12 04:39:37;;;;;;;;;7.25;5.75;;;;;22.14;55.39;102059.56;2403068;28;45242;-84
2022/07/12 04:40:47;;;;;;;;;6.50;5.75;;;;;22.16;55.07;102065.69;2415051;28;45343;-84
2022/07/12 04:41:58;;;;;;;;;5.75;5.00;;;;;22.13;55.65;102072.09;2419035;28;44754;-84
2022/07/12 04:43:08;;;;;;;;;4.50;4.25;;;;;22.13;55.63;102073.91;2408846;28;45432;-84
2022/07/12 04:44:18;;;;;;;;;6.00;6.00;;;;;22.10;55.31;102066.91;2415843;28;45202;-84
2022/07/12 04:45:29;;;;;;;;;8.00;8.00;;;;;22.11;55.84;102059.75;2422806;28;45389;-83
2022/07/12 04:46:39;;;;;;;;;6.00;6.00;;;;;22.10;55.38;102066.09;2405267;28;44786;-84
2022/07/12 04:47:49;;;;;;;;;6.00;6.00;;;;;22.08;55.37;102055.44;2403741;28;46540;-83
2022/07/12 04:49:00;;;;;;;;;7.00;6.25;;;;;22.08;55.84;102058.13;2415517;28;45229;-83
2022/07/12 04:50:11;;;;;;;;;8.50;5.25;;;;;22.08;55.87;102067.97;2422489;28;46249;-83
2022/07/12 04:51:21;;;;;;;;;6.75;5.25;;;;;22.08;56.01;102066.16;2422624;28;45411;-83
2022/07/12 04:52:32;;;;;;;;;5.75;5.25;;;;;22.06;55.86;102070.75;2416278;28;46720;-83
2022/07/12 04:53:42;;;;;;;;;6.00;5.00;;;;;22.05;55.99;102066.34;2403896;28;45213;-83
2022/07/12 04:54:52;;;;;;;;;7.00;7.00;;;;;22.05;55.55;102068.16;2415584;28;45595;-85
2022/07/12 04:56:03;;;;;;;;;5.50;5.00;;;;;22.05;55.84;102069.00;2403764;28;45445;-85
2022/07/12 04:57:13;;;;;;;;;6.50;5.00;;;;;22.02;56.19;102067.41;2419028;28;45423;-85
2022/07/12 04:58:24;;;;;;;;;7.25;5.75;;;;;22.02;55.42;102066.53;2421048;28;45337;-81
2022/07/12 04:59:34;;;;;;;;;5.50;5.50;;;;;21.99;55.83;102067.59;2422539;28;45336;-81
2022/07/12 05:00:45;;;;;;;;;7.00;7.00;;;;;22.00;56.08;102063.94;2410290;28;45373;-82
2022/07/12 05:01:55;;;;;;;;;5.25;5.00;;;;;21.99;55.99;102067.59;2402920;28;45320;-80
2022/07/12 05:03:05;;;;;;;;;5.75;5.75;;;;;22.00;56.42;102071.13;2402553;28;45219;-79
2022/07/12 05:04:16;;;;;;;;;4.50;4.50;;;;;21.98;56.63;102071.22;2403432;28;45167;-78
2022/07/12 05:05:26;;;;;;;;;6.00;6.00;;;;;21.98;56.70;102076.56;2415390;28;45227;-79
2022/07/12 05:06:36;;;;;;;;;6.75;6.75;;;;;22.00;56.03;102073.81;2412795;28;45232;-81
2022/07/12 05:07:47;;;;;;;;;8.00;5.00;;;;;21.99;56.27;102080.97;2417685;28;45150;-81
2022/07/12 05:08:58;;;;;;;;;6.50;6.50;;;;;22.00;56.44;102081.84;2414627;28;46384;-81
2022/07/12 05:10:08;;;;;;;;;8.50;7.25;;;;;22.00;56.37;102082.69;2419266;28;45272;-81
2022/07/12 05:11:19;;;;;;;;;8.75;6.50;;;;;22.00;56.12;102079.16;2421160;28;45206;-81
2022/07/12 05:12:29;;;;;;;;;5.75;5.75;;;;;22.02;56.70;102083.47;2421099;28;45252;-81
2022/07/12 05:13:40;;;;;;;;;6.25;5.25;;;;;22.03;56.59;102089.66;2417112;28;46434;-81
2022/07/12 05:14:50;;;;;;;;;7.75;6.25;;;;;22.02;56.83;102079.94;2422486;28;45281;-80
2022/07/12 05:16:01;;;;;;;;;7.75;6.25;;;;;22.03;56.79;102085.19;2422833;28;46132;-79
2022/07/12 05:17:12;;;;;;;;;6.75;5.50;;;;;22.06;56.37;102088.63;2417379;28;44799;-79
2022/07/12 05:18:22;;;;;;;;;10.00;7.75;;;;;22.06;57.06;102094.84;2413554;28;45593;-78
2022/07/12 05:19:32;;;;;;;;;6.50;6.00;;;;;22.07;56.71;102095.69;2414662;28;45481;-78
2022/07/12 05:20:43;;;;;;;;;6.00;6.00;;;;;22.07;56.25;102096.56;2413783;28;45472;-78
2022/07/12 05:21:53;;;;;;;;;7.00;7.00;;;;;22.10;56.75;102101.72;2413525;28;44860;-78
2022/07/12 05:23:03;;;;;;;;;5.00;5.00;;;;;22.11;56.60;102097.22;2410026;28;45433;-79
2022/07/12 05:24:14;;;;;;;;;7.25;7.00;;;;;22.13;56.25;102098.84;2413682;28;47175;-79
2022/07/12 05:25:24;;;;;;;;;5.75;5.50;;;;;22.17;55.94;102096.00;2411035;28;45985;-78
2022/07/12 05:26:35;;;;;;;;;5.00;5.00;;;;;22.20;56.36;102103.84;2411619;28;45693;-78
2022/07/12 05:27:45;;;;;;;;;6.00;6.00;;;;;22.24;56.13;102100.03;2411197;28;46416;-78
2022/07/12 05:28:56;;;;;;;;;8.75;5.50;;;;;22.25;55.90;102099.06;2410999;28;45194;-78
2022/07/12 05:30:06;;;;;;;;;6.75;5.50;;;;;22.30;56.38;102101.47;2411602;28;45457;-78